createdAt,value
2019-05-26T00:00:12.230Z,99.90
2019-05-26T00:01:26.046Z,99.90
2019-05-26T00:02:39.366Z,99.90
2019-05-26T00:03:53.186Z,99.90
2019-05-26T00:05:06.978Z,99.90
2019-05-26T00:06:20.804Z,99.90
2019-05-26T00:07:34.075Z,99.90
2019-05-26T00:08:47.936Z,99.90
2019-05-26T00:10:02.651Z,99.90
2019-05-26T00:11:16.601Z,99.90
2019-05-26T00:12:29.840Z,99.90
2019-05-26T00:13:43.666Z,99.90
2019-05-26T00:14:56.899Z,99.90
2019-05-26T00:16:10.746Z,99.90
2019-05-26T00:17:23.992Z,99.90
2019-05-26T00:18:37.806Z,99.90
2019-05-26T00:19:51.052Z,99.90
2019-05-26T00:21:04.866Z,99.90
2019-05-26T00:22:18.300Z,99.90
2019-05-26T00:23:32.198Z,99.90
2019-05-26T00:24:45.451Z,99.90
2019-05-26T00:26:00.024Z,99.90
2019-05-26T00:27:13.263Z,99.90
2019-05-26T00:28:27.106Z,99.90
2019-05-26T00:29:40.339Z,99.90
2019-05-26T00:30:54.167Z,99.90
2019-05-26T00:32:07.406Z,99.90
2019-05-26T00:33:21.230Z,99.90
2019-05-26T00:34:34.689Z,99.90
2019-05-26T00:35:48.495Z,99.90
2019-05-26T00:37:01.811Z,99.90
2019-05-26T00:38:15.640Z,99.90
2019-05-26T00:39:28.885Z,99.90
2019-05-26T00:40:42.728Z,99.90
2019-05-26T00:41:55.980Z,99.90
2019-05-26T00:43:09.797Z,99.90
2019-05-26T00:44:23.055Z,99.90
2019-05-26T00:45:36.874Z,99.90
2019-05-26T00:46:50.140Z,99.90
2019-05-26T00:48:03.962Z,99.90
2019-05-26T00:49:17.189Z,99.90
2019-05-26T00:50:31.010Z,99.90
2019-05-26T00:51:44.252Z,99.90
2019-05-26T00:52:58.290Z,99.90
2019-05-26T00:54:11.634Z,99.90
2019-05-26T00:55:25.468Z,99.90
2019-05-26T00:56:38.695Z,99.90
2019-05-26T00:57:52.527Z,99.90
2019-05-26T00:59:05.775Z,99.90
2019-05-26T01:00:37.843Z,99.90
2019-05-26T01:01:51.092Z,99.90
2019-05-26T01:03:04.935Z,99.90
2019-05-26T01:04:18.170Z,99.90
2019-05-26T01:05:31.987Z,99.90
2019-05-26T01:06:45.218Z,99.90
2019-05-26T01:08:06.462Z,99.90
2019-05-26T01:09:14.208Z,99.90
2019-05-26T01:10:28.030Z,99.90
2019-05-26T01:11:42.382Z,99.90
2019-05-26T01:12:56.218Z,99.90
2019-05-26T01:14:09.930Z,99.90
2019-05-26T01:15:23.968Z,99.90
2019-05-26T01:16:37.194Z,99.90
2019-05-26T01:17:51.028Z,99.90
2019-05-26T01:19:04.436Z,99.90
2019-05-26T01:20:18.246Z,99.90
2019-05-26T01:21:31.486Z,99.90
2019-05-26T01:22:45.325Z,99.90
2019-05-26T01:23:58.572Z,99.90
2019-05-26T01:25:12.958Z,99.90
2019-05-26T01:26:26.195Z,99.90
2019-05-26T01:27:40.021Z,99.90
2019-05-26T01:28:53.265Z,99.90
2019-05-26T01:30:09.879Z,99.90
2019-05-26T01:31:23.695Z,99.90
2019-05-26T01:32:37.509Z,99.90
2019-05-26T01:33:50.751Z,99.90
2019-05-26T01:35:06.434Z,99.90
2019-05-26T01:36:19.674Z,99.90
2019-05-26T01:37:35.302Z,99.90
2019-05-26T01:38:48.706Z,99.90
2019-05-26T01:40:02.528Z,99.90
2019-05-26T01:41:15.919Z,99.90
2019-05-26T01:42:29.752Z,99.90
2019-05-26T01:43:44.046Z,99.90
2019-05-26T01:44:57.866Z,99.90
2019-05-26T01:46:11.107Z,99.90
2019-05-26T01:47:24.938Z,99.90
2019-05-26T01:48:38.172Z,99.90
2019-05-26T01:49:51.978Z,99.90
2019-05-26T01:51:06.231Z,99.90
2019-05-26T01:52:20.057Z,99.90
2019-05-26T01:53:33.294Z,99.90
2019-05-26T01:54:47.148Z,99.90
2019-05-26T01:56:00.362Z,99.90
2019-05-26T01:57:14.189Z,99.90
2019-05-26T01:58:27.623Z,99.90
2019-05-26T01:59:41.435Z,99.90
2019-05-26T02:00:54.667Z,99.90
2019-05-26T02:02:08.482Z,99.90
2019-05-26T02:03:21.736Z,99.90
2019-05-26T02:04:36.814Z,99.90
2019-05-26T02:05:50.266Z,99.90
2019-05-26T02:07:04.094Z,99.90
2019-05-26T02:08:17.605Z,99.90
2019-05-26T02:09:31.397Z,99.90
2019-05-26T02:10:44.637Z,99.90
2019-05-26T02:11:58.438Z,99.90
2019-05-26T02:13:12.266Z,99.90
2019-05-26T02:14:26.075Z,99.90
2019-05-26T02:15:39.374Z,99.90
2019-05-26T02:16:53.199Z,99.90
2019-05-26T02:18:06.502Z,99.90
2019-05-26T02:19:20.414Z,99.90
2019-05-26T02:20:33.638Z,99.90
2019-05-26T02:21:47.454Z,99.90
2019-05-26T02:23:00.687Z,99.90
2019-05-26T02:24:14.503Z,99.90
2019-05-26T02:25:27.917Z,99.90
2019-05-26T02:26:41.725Z,99.90
2019-05-26T02:27:54.963Z,99.90
2019-05-26T02:29:08.773Z,99.90
2019-05-26T02:30:22.215Z,99.90
2019-05-26T02:31:36.039Z,99.90
2019-05-26T02:32:49.276Z,99.90
2019-05-26T02:34:03.103Z,99.90
2019-05-26T02:35:16.428Z,99.90
2019-05-26T02:36:30.230Z,99.90
2019-05-26T02:37:43.481Z,99.90
2019-05-26T02:39:02.730Z,99.90
2019-05-26T02:40:13.386Z,99.90
2019-05-26T02:41:27.283Z,99.90
2019-05-26T02:42:40.550Z,99.90
2019-05-26T02:43:54.195Z,99.90
2019-05-26T02:45:08.294Z,99.90
2019-05-26T02:46:22.098Z,99.90
2019-05-26T02:47:35.335Z,99.90
2019-05-26T02:48:49.145Z,99.90
2019-05-26T02:50:02.399Z,99.90
2019-05-26T02:51:16.206Z,99.90
2019-05-26T02:52:29.439Z,99.90
2019-05-26T02:53:43.250Z,99.90
2019-05-26T02:54:56.501Z,99.90
2019-05-26T02:56:10.311Z,99.90
2019-05-26T02:57:23.552Z,99.90
2019-05-26T02:58:37.370Z,99.90
2019-05-26T02:59:50.589Z,99.90
2019-05-26T03:01:04.978Z,99.90
2019-05-26T03:02:18.222Z,99.90
2019-05-26T03:03:32.030Z,99.90
2019-05-26T03:04:45.355Z,99.90
2019-05-26T03:05:59.165Z,99.90
2019-05-26T03:07:12.608Z,99.90
2019-05-26T03:08:26.432Z,99.90
2019-05-26T03:09:39.663Z,99.90
2019-05-26T03:10:53.485Z,99.90
2019-05-26T03:12:06.726Z,99.90
2019-05-26T03:13:20.760Z,99.90
2019-05-26T03:14:34.000Z,99.90
2019-05-26T03:15:47.990Z,99.90
2019-05-26T03:17:01.229Z,99.90
2019-05-26T03:18:15.307Z,99.90
2019-05-26T03:19:28.553Z,99.90
2019-05-26T03:20:42.639Z,99.90
2019-05-26T03:21:56.540Z,99.90
2019-05-26T03:23:10.414Z,99.90
2019-05-26T03:24:23.656Z,99.90
2019-05-26T03:25:38.134Z,99.90
2019-05-26T03:26:51.367Z,99.90
2019-05-26T03:28:07.161Z,99.90
2019-05-26T03:29:20.597Z,99.90
2019-05-26T03:30:34.896Z,99.90
2019-05-26T03:31:48.914Z,99.90
2019-05-26T03:33:02.720Z,99.90
2019-05-26T03:34:15.990Z,99.90
2019-05-26T03:35:30.081Z,99.90
2019-05-26T03:36:43.419Z,99.90
2019-05-26T03:37:57.242Z,99.90
2019-05-26T03:39:10.545Z,99.90
2019-05-26T03:40:24.375Z,99.90
2019-05-26T03:41:37.605Z,99.90
2019-05-26T03:42:52.670Z,99.90
2019-05-26T03:44:06.033Z,99.90
2019-05-26T03:45:24.882Z,99.90
2019-05-26T03:46:38.106Z,99.90
2019-05-26T03:47:51.987Z,99.90
2019-05-26T03:49:05.216Z,99.90
2019-05-26T03:50:19.415Z,99.90
2019-05-26T03:51:32.647Z,99.90
2019-05-26T03:52:46.454Z,99.90
2019-05-26T03:53:59.689Z,99.90
2019-05-26T03:55:13.711Z,99.90
2019-05-26T03:56:26.935Z,99.90
2019-05-26T03:57:40.842Z,99.90
2019-05-26T03:58:54.087Z,99.90
2019-05-26T04:00:08.067Z,99.90
2019-05-26T04:01:21.539Z,99.90
2019-05-26T04:02:35.568Z,99.90
2019-05-26T04:03:48.799Z,99.90
2019-05-26T04:05:03.560Z,99.90
2019-05-26T04:06:16.783Z,99.90
2019-05-26T04:07:30.602Z,99.90
2019-05-26T04:08:45.860Z,99.90
2019-05-26T04:10:05.609Z,99.90
2019-05-26T04:11:14.691Z,99.90
2019-05-26T04:12:28.504Z,99.90
2019-05-26T04:13:41.743Z,99.90
2019-05-26T04:14:55.573Z,99.90
2019-05-26T04:16:08.872Z,99.90
2019-05-26T04:17:22.704Z,99.90
2019-05-26T04:18:35.931Z,99.90
2019-05-26T04:19:49.954Z,99.90
2019-05-26T04:21:03.200Z,99.90
2019-05-26T04:22:17.075Z,99.90
2019-05-26T04:23:30.552Z,99.90
2019-05-26T04:24:46.083Z,99.90
2019-05-26T04:25:59.509Z,99.90
2019-05-26T04:27:13.327Z,99.90
2019-05-26T04:28:26.794Z,99.90
2019-05-26T04:29:40.608Z,99.90
2019-05-26T04:30:53.844Z,99.90
2019-05-26T04:32:07.669Z,99.90
2019-05-26T04:33:22.022Z,99.90
2019-05-26T04:34:35.609Z,99.90
2019-05-26T04:35:50.058Z,99.90
2019-05-26T04:37:03.862Z,99.90
2019-05-26T04:38:17.111Z,99.90
2019-05-26T04:39:30.915Z,99.90
2019-05-26T04:40:44.149Z,99.90
2019-05-26T04:41:57.967Z,99.90
2019-05-26T04:43:14.699Z,99.90
2019-05-26T04:44:26.747Z,99.90
2019-05-26T04:45:39.991Z,99.90
2019-05-26T04:46:53.797Z,99.90
2019-05-26T04:48:07.022Z,99.90
2019-05-26T04:49:20.841Z,99.90
2019-05-26T04:50:34.072Z,99.90
2019-05-26T04:51:47.891Z,99.90
2019-05-26T04:53:06.545Z,99.90
2019-05-26T04:54:16.671Z,99.90
2019-05-26T04:55:29.917Z,99.90
2019-05-26T04:56:43.732Z,99.90
2019-05-26T04:57:56.967Z,99.90
2019-05-26T04:59:10.876Z,99.90
2019-05-26T05:00:24.443Z,99.90
2019-05-26T05:01:38.259Z,99.90
2019-05-26T05:02:52.062Z,99.90
2019-05-26T05:04:05.887Z,99.90
2019-05-26T05:05:19.190Z,99.90
2019-05-26T05:06:33.015Z,99.90
2019-05-26T05:07:46.246Z,99.90
2019-05-26T05:09:00.055Z,99.90
2019-05-26T05:10:13.291Z,99.90
2019-05-26T05:11:27.190Z,99.90
2019-05-26T05:12:40.431Z,99.90
2019-05-26T05:13:54.242Z,99.90
2019-05-26T05:15:07.539Z,99.90
2019-05-26T05:16:21.359Z,99.90
2019-05-26T05:17:34.612Z,99.90
2019-05-26T05:18:48.425Z,99.90
2019-05-26T05:20:01.930Z,99.90
2019-05-26T05:21:15.859Z,99.90
2019-05-26T05:22:29.094Z,99.90
2019-05-26T05:23:42.921Z,99.90
2019-05-26T05:24:56.153Z,99.90
2019-05-26T05:26:09.962Z,99.90
2019-05-26T05:27:23.215Z,99.90
2019-05-26T05:28:37.027Z,99.90
2019-05-26T05:29:50.274Z,99.90
2019-05-26T05:31:04.086Z,99.90
2019-05-26T05:32:17.334Z,99.90
2019-05-26T05:33:31.140Z,99.90
2019-05-26T05:34:45.492Z,99.90
2019-05-26T05:35:59.299Z,99.90
2019-05-26T05:37:12.531Z,99.90
2019-05-26T05:38:26.350Z,99.90
2019-05-26T05:39:39.587Z,99.90
2019-05-26T05:40:59.547Z,99.90
2019-05-26T05:42:08.554Z,99.90
2019-05-26T05:43:22.382Z,99.90
2019-05-26T05:44:35.679Z,99.90
2019-05-26T05:45:49.739Z,99.90
2019-05-26T05:47:02.954Z,99.90
2019-05-26T05:48:16.762Z,99.90
2019-05-26T05:49:30.047Z,99.90
2019-05-26T05:50:43.902Z,99.90
2019-05-26T05:51:57.211Z,99.90
2019-05-26T05:53:11.036Z,99.90
2019-05-26T05:54:24.286Z,99.90
2019-05-26T05:55:38.113Z,99.90
2019-05-26T05:56:51.346Z,99.90
2019-05-26T05:58:05.177Z,99.90
2019-05-26T05:59:18.401Z,99.90
2019-05-26T06:00:32.237Z,99.90
2019-05-26T06:01:45.476Z,99.90
2019-05-26T06:02:59.312Z,99.90
2019-05-26T06:04:12.595Z,99.90
2019-05-26T06:05:26.419Z,99.90
2019-05-26T06:06:39.644Z,99.90
2019-05-26T06:07:53.463Z,99.90
2019-05-26T06:09:08.265Z,99.90
2019-05-26T06:10:22.150Z,99.90
2019-05-26T06:11:35.750Z,99.90
2019-05-26T06:12:49.558Z,99.90
2019-05-26T06:14:03.002Z,99.90
2019-05-26T06:15:17.716Z,99.90
2019-05-26T06:16:31.074Z,99.90
2019-05-26T06:17:44.894Z,99.90
2019-05-26T06:18:58.219Z,99.90
2019-05-26T06:20:12.036Z,99.90
2019-05-26T06:21:25.543Z,99.90
2019-05-26T06:22:39.360Z,99.90
2019-05-26T06:23:52.578Z,99.90
2019-05-26T06:25:07.645Z,99.90
2019-05-26T06:26:21.206Z,99.90
2019-05-26T06:27:35.935Z,99.90
2019-05-26T06:28:52.263Z,99.90
2019-05-26T06:30:06.721Z,99.90
2019-05-26T06:31:20.231Z,99.90
2019-05-26T06:32:34.053Z,99.90
2019-05-26T06:33:47.286Z,99.90
2019-05-26T06:35:01.104Z,99.90
2019-05-26T06:36:14.547Z,99.90
2019-05-26T06:37:28.398Z,99.90
2019-05-26T06:38:41.631Z,99.90
2019-05-26T06:39:55.448Z,99.90
2019-05-26T06:41:08.703Z,99.90
2019-05-26T06:42:22.518Z,99.90
2019-05-26T06:43:35.755Z,99.90
2019-05-26T06:44:53.544Z,99.90
2019-05-26T06:46:04.529Z,99.90
2019-05-26T06:47:18.350Z,99.90
2019-05-26T06:48:31.586Z,99.90
2019-05-26T06:49:45.409Z,99.90
2019-05-26T06:50:58.644Z,99.90
2019-05-26T06:52:12.455Z,99.90
2019-05-26T06:53:25.891Z,99.90
2019-05-26T06:54:39.703Z,99.90
2019-05-26T06:55:52.974Z,99.90
2019-05-26T06:57:06.782Z,99.90
2019-05-26T06:58:20.095Z,99.90
2019-05-26T06:59:33.906Z,99.90
2019-05-26T07:00:47.155Z,99.90
2019-05-26T07:02:03.217Z,99.90
2019-05-26T07:03:16.460Z,99.90
2019-05-26T07:04:30.262Z,99.90
2019-05-26T07:05:43.516Z,99.90
2019-05-26T07:06:57.327Z,99.90
2019-05-26T07:08:10.617Z,99.90
2019-05-26T07:09:24.438Z,99.90
2019-05-26T07:10:37.760Z,99.90
2019-05-26T07:11:59.077Z,99.90
2019-05-26T07:13:06.610Z,99.90
2019-05-26T07:14:20.458Z,99.90
2019-05-26T07:15:33.692Z,99.90
2019-05-26T07:16:47.518Z,99.90
2019-05-26T07:18:00.819Z,99.90
2019-05-26T07:19:14.640Z,99.90
2019-05-26T07:20:28.074Z,99.90
2019-05-26T07:21:42.103Z,99.90
2019-05-26T07:22:55.332Z,99.90
2019-05-26T07:24:09.147Z,99.90
2019-05-26T07:25:22.374Z,99.90
2019-05-26T07:26:36.198Z,99.90
2019-05-26T07:27:49.426Z,99.90
2019-05-26T07:29:03.482Z,99.90
2019-05-26T07:30:16.720Z,99.90
2019-05-26T07:31:30.542Z,99.90
2019-05-26T07:32:43.771Z,99.90
2019-05-26T07:33:57.643Z,99.90
2019-05-26T07:35:10.867Z,99.90
2019-05-26T07:36:24.705Z,99.90
2019-05-26T07:37:37.939Z,99.90
2019-05-26T07:38:51.807Z,99.90
2019-05-26T07:40:05.590Z,99.90
2019-05-26T07:41:19.446Z,99.90
2019-05-26T07:42:32.913Z,99.90
2019-05-26T07:43:46.723Z,99.90
2019-05-26T07:44:59.955Z,99.90
2019-05-26T07:46:13.782Z,99.90
2019-05-26T07:47:27.014Z,99.90
2019-05-26T07:48:41.038Z,99.90
2019-05-26T07:49:54.275Z,99.90
2019-05-26T07:51:08.088Z,99.90
2019-05-26T07:52:21.338Z,99.90
2019-05-26T07:53:35.151Z,99.90
2019-05-26T07:54:48.398Z,99.90
2019-05-26T07:56:02.202Z,99.90
2019-05-26T07:57:15.441Z,99.90
2019-05-26T07:58:29.263Z,99.90
2019-05-26T07:59:42.613Z,99.90
2019-05-26T08:00:56.666Z,99.90
2019-05-26T08:02:09.993Z,99.90
2019-05-26T08:03:23.806Z,99.90
2019-05-26T08:04:37.034Z,99.90
2019-05-26T08:05:50.847Z,99.90
2019-05-26T08:07:04.169Z,99.90
2019-05-26T08:08:17.983Z,99.90
2019-05-26T08:09:31.278Z,99.90
2019-05-26T08:10:45.103Z,99.90
2019-05-26T08:11:58.325Z,99.90
2019-05-26T08:13:12.164Z,99.90
2019-05-26T08:14:25.395Z,99.90
2019-05-26T08:15:39.211Z,99.90
2019-05-26T08:16:52.435Z,99.90
2019-05-26T08:18:06.245Z,99.90
2019-05-26T08:19:19.494Z,99.90
2019-05-26T08:20:33.313Z,99.90
2019-05-26T08:21:46.539Z,99.90
2019-05-26T08:23:00.354Z,99.90
2019-05-26T08:24:13.579Z,99.90
2019-05-26T08:25:27.406Z,99.90
2019-05-26T08:26:41.791Z,99.90
2019-05-26T08:27:55.607Z,99.90
2019-05-26T08:29:08.835Z,99.90
2019-05-26T08:30:24.290Z,99.90
2019-05-26T08:31:37.516Z,99.90
2019-05-26T08:32:51.340Z,99.90
2019-05-26T08:34:04.575Z,99.90
2019-05-26T08:35:18.386Z,99.90
2019-05-26T08:36:31.826Z,99.90
2019-05-26T08:37:45.645Z,99.80
2019-05-26T08:38:58.882Z,99.90
2019-05-26T08:40:18.698Z,98.10
2019-05-26T08:41:31.953Z,97.90
2019-05-26T08:42:46.965Z,95.70
2019-05-26T08:44:00.197Z,97.70
2019-05-26T08:45:14.016Z,99.60
2019-05-26T08:46:27.246Z,99.90
2019-05-26T08:47:41.279Z,99.90
2019-05-26T08:48:54.511Z,99.90
2019-05-26T08:50:08.326Z,99.90
2019-05-26T08:51:21.575Z,99.50
2019-05-26T08:52:35.395Z,97.80
2019-05-26T08:53:48.621Z,96.80
2019-05-26T08:55:02.522Z,93.70
2019-05-26T08:56:15.755Z,94.40
2019-05-26T08:57:29.573Z,96.20
2019-05-26T08:58:42.891Z,97.00
2019-05-26T08:59:56.882Z,97.10
2019-05-26T09:01:10.134Z,98.20
2019-05-26T09:02:24.034Z,98.50
2019-05-26T09:03:37.462Z,99.40
2019-05-26T09:04:51.372Z,98.20
2019-05-26T09:06:05.776Z,98.80
2019-05-26T09:07:19.678Z,96.70
2019-05-26T09:08:32.931Z,97.00
2019-05-26T09:09:47.335Z,96.40
2019-05-26T09:11:00.582Z,94.30
2019-05-26T09:12:14.656Z,94.70
2019-05-26T09:13:27.920Z,95.90
2019-05-26T09:14:42.067Z,95.40
2019-05-26T09:15:55.302Z,91.70
2019-05-26T09:17:09.118Z,93.80
2019-05-26T09:18:22.353Z,91.30
2019-05-26T09:19:36.200Z,91.20
2019-05-26T09:20:49.417Z,90.80
2019-05-26T09:22:03.255Z,86.60
2019-05-26T09:23:16.494Z,86.40
2019-05-26T09:24:30.314Z,83.30
2019-05-26T09:25:46.415Z,84.10
2019-05-26T09:26:59.072Z,83.40
2019-05-26T09:28:12.310Z,82.80
2019-05-26T09:29:26.114Z,84.70
2019-05-26T09:30:39.360Z,82.50
2019-05-26T09:31:53.198Z,85.30
2019-05-26T09:33:06.490Z,84.20
2019-05-26T09:34:20.312Z,83.10
2019-05-26T09:35:33.538Z,85.50
2019-05-26T09:36:47.361Z,79.30
2019-05-26T09:38:00.603Z,80.80
2019-05-26T09:39:16.050Z,81.20
2019-05-26T09:40:29.357Z,82.50
2019-05-26T09:41:43.155Z,84.20
2019-05-26T09:42:56.391Z,83.20
2019-05-26T09:44:10.415Z,85.20
2019-05-26T09:45:23.710Z,75.60
2019-05-26T09:46:37.534Z,77.60
2019-05-26T09:47:50.785Z,78.30
2019-05-26T09:49:04.795Z,77.90
2019-05-26T09:50:18.027Z,78.90
2019-05-26T09:51:31.851Z,80.60
2019-05-26T09:52:45.286Z,76.80
2019-05-26T09:54:01.689Z,79.50
2019-05-26T09:55:14.931Z,82.50
2019-05-26T09:56:28.738Z,82.00
2019-05-26T09:57:41.991Z,85.10
2019-05-26T09:58:55.816Z,82.10
2019-05-26T10:00:09.734Z,81.60
2019-05-26T10:01:23.854Z,79.80
2019-05-26T10:02:37.154Z,79.70
2019-05-26T10:03:51.211Z,79.90
2019-05-26T10:05:06.287Z,78.30
2019-05-26T10:06:20.148Z,78.70
2019-05-26T10:07:33.383Z,80.10
2019-05-26T10:08:47.195Z,83.20
2019-05-26T10:10:00.421Z,79.10
2019-05-26T10:11:14.226Z,75.10
2019-05-26T10:12:27.544Z,76.10
2019-05-26T10:13:41.345Z,76.10
2019-05-26T10:14:54.582Z,74.20
2019-05-26T10:16:08.394Z,75.40
2019-05-26T10:17:23.305Z,69.90
2019-05-26T10:18:37.365Z,68.00
2019-05-26T10:19:50.598Z,68.10
2019-05-26T10:21:04.479Z,61.70
2019-05-26T10:22:17.715Z,61.10
2019-05-26T10:23:31.606Z,63.80
2019-05-26T10:24:44.837Z,61.80
2019-05-26T10:25:58.641Z,63.10
2019-05-26T10:27:12.119Z,65.00
2019-05-26T10:28:26.148Z,57.50
2019-05-26T10:29:39.910Z,59.00
2019-05-26T10:30:53.727Z,58.90
2019-05-26T10:32:06.954Z,57.60
2019-05-26T10:33:20.787Z,56.90
2019-05-26T10:34:34.231Z,59.10
2019-05-26T10:35:48.040Z,59.20
2019-05-26T10:37:01.274Z,59.00
2019-05-26T10:38:15.085Z,56.90
2019-05-26T10:39:28.326Z,58.30
2019-05-26T10:40:42.610Z,56.40
2019-05-26T10:41:55.854Z,56.20
2019-05-26T10:43:09.908Z,56.00
2019-05-26T10:44:23.134Z,55.90
2019-05-26T10:45:37.408Z,55.30
2019-05-26T10:46:50.628Z,55.90
2019-05-26T10:48:04.651Z,55.20
2019-05-26T10:49:17.974Z,55.90
2019-05-26T10:50:31.990Z,55.70
2019-05-26T10:51:45.223Z,53.70
2019-05-26T10:52:59.039Z,54.40
2019-05-26T10:54:12.258Z,54.80
2019-05-26T10:55:26.638Z,54.10
2019-05-26T10:56:39.872Z,54.30
2019-05-26T10:57:53.900Z,55.30
2019-05-26T10:59:07.126Z,57.60
2019-05-26T11:00:21.957Z,56.60
2019-05-26T11:01:35.194Z,54.30
2019-05-26T11:02:49.214Z,53.00
2019-05-26T11:04:02.472Z,52.90
2019-05-26T11:05:16.341Z,52.20
2019-05-26T11:06:29.575Z,51.60
2019-05-26T11:07:43.390Z,52.60
2019-05-26T11:08:56.622Z,52.70
2019-05-26T11:10:10.690Z,52.30
2019-05-26T11:11:23.933Z,52.10
2019-05-26T11:12:38.216Z,52.40
2019-05-26T11:14:02.294Z,51.50
2019-05-26T11:15:08.620Z,52.90
2019-05-26T11:16:22.331Z,53.10
2019-05-26T11:17:36.148Z,51.00
2019-05-26T11:18:49.374Z,50.20
2019-05-26T11:20:03.662Z,50.90
2019-05-26T11:21:16.936Z,50.60
2019-05-26T11:22:31.759Z,50.90
2019-05-26T11:23:44.999Z,50.90
2019-05-26T11:24:58.808Z,52.00
2019-05-26T11:26:12.043Z,47.70
2019-05-26T11:27:26.067Z,47.40
2019-05-26T11:28:39.818Z,47.20
2019-05-26T11:29:53.630Z,46.10
2019-05-26T11:31:06.871Z,47.80
2019-05-26T11:32:20.714Z,48.10
2019-05-26T11:33:33.937Z,47.70
2019-05-26T11:35:00.642Z,41.50
2019-05-26T11:36:02.694Z,41.10
2019-05-26T11:37:16.513Z,41.10
2019-05-26T11:38:33.287Z,41.50
2019-05-26T11:39:45.493Z,43.00
2019-05-26T11:40:59.325Z,42.00
2019-05-26T11:42:14.264Z,40.90
2019-05-26T11:43:27.746Z,38.60
2019-05-26T11:44:41.644Z,37.00
2019-05-26T11:45:54.883Z,37.90
2019-05-26T11:47:09.395Z,37.60
2019-05-26T11:48:22.622Z,35.30
2019-05-26T11:49:36.467Z,32.80
2019-05-26T11:50:49.769Z,33.00
2019-05-26T11:52:03.602Z,34.70
2019-05-26T11:53:16.839Z,35.60
2019-05-26T11:54:34.432Z,37.20
2019-05-26T11:55:48.093Z,34.50
2019-05-26T11:57:01.904Z,33.30
2019-05-26T11:58:15.134Z,34.20
2019-05-26T11:59:28.966Z,34.40
2019-05-26T12:00:42.563Z,34.20
2019-05-26T12:01:56.730Z,35.30
2019-05-26T12:03:10.017Z,35.50
2019-05-26T12:04:24.523Z,35.10
2019-05-26T12:05:37.767Z,36.70
2019-05-26T12:06:51.571Z,38.60
2019-05-26T12:08:04.937Z,38.70
2019-05-26T12:09:19.641Z,39.90
2019-05-26T12:10:32.944Z,39.70
2019-05-26T12:11:47.220Z,40.00
2019-05-26T12:13:00.679Z,40.60
2019-05-26T12:14:14.722Z,41.30
2019-05-26T12:15:27.954Z,42.20
2019-05-26T12:16:41.775Z,41.80
2019-05-26T12:17:54.998Z,43.50
2019-05-26T12:19:09.099Z,40.90
2019-05-26T12:20:22.385Z,38.90
2019-05-26T12:21:36.786Z,40.20
2019-05-26T12:22:50.017Z,40.00
2019-05-26T12:24:05.039Z,38.00
2019-05-26T12:25:18.473Z,39.20
2019-05-26T12:26:32.289Z,40.10
2019-05-26T12:27:46.770Z,41.90
2019-05-26T12:29:01.053Z,45.40
2019-05-26T12:30:14.293Z,46.70
2019-05-26T12:31:28.102Z,47.40
2019-05-26T12:32:42.338Z,47.50
2019-05-26T12:33:56.434Z,48.30
2019-05-26T12:35:10.549Z,48.80
2019-05-26T12:36:24.367Z,49.20
2019-05-26T12:37:37.877Z,49.00
2019-05-26T12:38:51.973Z,47.90
2019-05-26T12:40:06.134Z,45.00
2019-05-26T12:41:21.290Z,43.90
2019-05-26T12:42:34.522Z,41.40
2019-05-26T12:43:48.349Z,38.90
2019-05-26T12:45:01.594Z,39.40
2019-05-26T12:46:15.407Z,39.40
2019-05-26T12:47:29.672Z,40.10
2019-05-26T12:48:45.112Z,39.40
2019-05-26T12:49:58.366Z,39.20
2019-05-26T12:51:12.190Z,35.90
2019-05-26T12:52:25.439Z,37.40
2019-05-26T12:53:39.254Z,37.90
2019-05-26T12:54:52.502Z,37.40
2019-05-26T12:56:06.357Z,37.20
2019-05-26T12:57:19.808Z,37.10
2019-05-26T12:58:33.613Z,36.60
2019-05-26T12:59:46.864Z,36.90
2019-05-26T13:01:00.892Z,37.00
2019-05-26T13:02:14.130Z,37.70
2019-05-26T13:03:28.055Z,37.60
2019-05-26T13:04:41.490Z,37.60
2019-05-26T13:05:55.314Z,36.50
2019-05-26T13:07:08.559Z,34.80
2019-05-26T13:08:23.386Z,34.70
2019-05-26T13:09:36.626Z,34.20
2019-05-26T13:10:50.434Z,31.90
2019-05-26T13:12:03.691Z,32.50
2019-05-26T13:13:17.486Z,35.20
2019-05-26T13:14:31.015Z,33.60
2019-05-26T13:15:44.832Z,35.10
2019-05-26T13:17:01.414Z,33.20
2019-05-26T13:18:14.920Z,33.60
2019-05-26T13:19:28.450Z,33.70
2019-05-26T13:20:42.330Z,32.20
2019-05-26T13:21:55.563Z,33.30
2019-05-26T13:23:09.370Z,33.90
2019-05-26T13:24:22.602Z,36.90
2019-05-26T13:25:36.410Z,36.90
2019-05-26T13:26:49.718Z,36.70
2019-05-26T13:28:03.350Z,36.90
2019-05-26T13:29:16.604Z,36.10
2019-05-26T13:30:31.701Z,35.10
2019-05-26T13:31:44.952Z,35.40
2019-05-26T13:32:59.014Z,36.20
2019-05-26T13:34:12.229Z,37.70
2019-05-26T13:35:26.063Z,36.90
2019-05-26T13:36:39.320Z,37.20
2019-05-26T13:37:53.123Z,36.70
2019-05-26T13:39:08.008Z,36.50
2019-05-26T13:40:21.817Z,37.50
2019-05-26T13:41:35.063Z,39.20
2019-05-26T13:42:48.887Z,38.60
2019-05-26T13:44:02.114Z,38.60
2019-05-26T13:45:22.383Z,39.50
2019-05-26T13:46:30.996Z,39.80
2019-05-26T13:47:44.803Z,39.90
2019-05-26T13:48:58.664Z,38.90
2019-05-26T13:50:12.497Z,39.20
2019-05-26T13:51:26.186Z,39.80
2019-05-26T13:52:40.576Z,40.30
2019-05-26T13:53:54.266Z,40.50
2019-05-26T13:55:08.710Z,40.90
2019-05-26T13:56:21.974Z,41.00
2019-05-26T13:57:36.002Z,41.50
2019-05-26T13:58:49.228Z,41.10
2019-05-26T14:00:03.498Z,40.50
2019-05-26T14:01:17.250Z,41.10
2019-05-26T14:02:31.239Z,40.80
2019-05-26T14:03:44.470Z,40.40
2019-05-26T14:04:59.852Z,41.20
2019-05-26T14:06:13.102Z,42.40
2019-05-26T14:07:26.923Z,41.70
2019-05-26T14:08:40.166Z,42.00
2019-05-26T14:09:55.822Z,39.80
2019-05-26T14:11:09.056Z,40.70
2019-05-26T14:12:22.870Z,39.60
2019-05-26T14:13:36.124Z,38.00
2019-05-26T14:14:50.068Z,37.70
2019-05-26T14:16:04.390Z,38.20
2019-05-26T14:17:18.655Z,39.50
2019-05-26T14:18:31.880Z,38.30
2019-05-26T14:19:45.710Z,37.60
2019-05-26T14:21:00.241Z,39.50
2019-05-26T14:22:14.065Z,37.50
2019-05-26T14:23:27.317Z,36.70
2019-05-26T14:24:53.390Z,34.80
2019-05-26T14:25:56.079Z,31.90
2019-05-26T14:27:09.904Z,31.20
2019-05-26T14:28:23.126Z,32.50
2019-05-26T14:29:36.951Z,32.30
2019-05-26T14:30:50.383Z,32.60
2019-05-26T14:32:04.194Z,33.60
2019-05-26T14:33:17.428Z,34.10
2019-05-26T14:34:31.251Z,34.90
2019-05-26T14:35:44.486Z,35.90
2019-05-26T14:36:59.051Z,35.50
2019-05-26T14:38:12.284Z,37.00
2019-05-26T14:39:26.090Z,37.40
2019-05-26T14:40:39.543Z,37.50
2019-05-26T14:41:53.363Z,38.10
2019-05-26T14:43:06.815Z,37.10
2019-05-26T14:44:20.623Z,37.30
2019-05-26T14:45:36.070Z,38.10
2019-05-26T14:46:50.943Z,39.50
2019-05-26T14:48:05.111Z,40.20
2019-05-26T14:49:18.936Z,41.50
2019-05-26T14:50:32.455Z,41.10
2019-05-26T14:51:46.273Z,40.60
2019-05-26T14:52:59.507Z,41.50
2019-05-26T14:54:13.560Z,42.10
2019-05-26T14:55:26.804Z,40.90
2019-05-26T14:56:40.617Z,41.20
2019-05-26T14:57:54.105Z,41.60
2019-05-26T14:59:07.916Z,42.20
2019-05-26T15:00:21.622Z,41.10
2019-05-26T15:01:35.434Z,40.70
2019-05-26T15:02:48.774Z,41.60
2019-05-26T15:04:02.589Z,43.40
2019-05-26T15:05:15.826Z,44.20
2019-05-26T15:06:29.630Z,42.70
2019-05-26T15:07:42.868Z,43.00
2019-05-26T15:08:56.930Z,43.00
2019-05-26T15:10:11.991Z,43.10
2019-05-26T15:11:25.814Z,43.40
2019-05-26T15:12:39.038Z,43.60
2019-05-26T15:13:53.880Z,43.50
2019-05-26T15:15:07.115Z,43.50
2019-05-26T15:16:21.614Z,42.60
2019-05-26T15:17:34.823Z,42.20
2019-05-26T15:18:48.715Z,42.50
2019-05-26T15:20:01.970Z,41.70
2019-05-26T15:21:18.095Z,41.40
2019-05-26T15:22:31.047Z,41.70
2019-05-26T15:23:44.866Z,41.80
2019-05-26T15:24:58.108Z,42.40
2019-05-26T15:26:12.122Z,42.80
2019-05-26T15:27:25.355Z,43.60
2019-05-26T15:28:41.218Z,43.70
2019-05-26T15:29:54.460Z,43.80
2019-05-26T15:31:10.210Z,42.90
2019-05-26T15:32:23.257Z,42.30
2019-05-26T15:33:37.086Z,42.60
2019-05-26T15:34:50.322Z,42.60
2019-05-26T15:36:04.142Z,41.50
2019-05-26T15:37:17.379Z,41.20
2019-05-26T15:38:42.385Z,41.10
2019-05-26T15:39:46.154Z,40.70
2019-05-26T15:41:00.189Z,41.40
2019-05-26T15:42:13.415Z,41.80
2019-05-26T15:43:27.223Z,42.00
2019-05-26T15:44:41.981Z,40.60
2019-05-26T15:45:56.028Z,40.10
2019-05-26T15:47:09.971Z,39.80
2019-05-26T15:48:24.926Z,39.90
2019-05-26T15:49:38.159Z,39.40